createdAt,value
2023-01-17T00:02:21.385Z,2.20
2023-01-17T00:05:12.451Z,2.00
2023-01-17T00:07:59.344Z,2.13
2023-01-17T00:10:28.948Z,2.08
2023-01-17T00:12:59.054Z,1.85
2023-01-17T00:15:28.305Z,1.73
2023-01-17T00:17:56.461Z,2.20
2023-01-17T00:20:44.518Z,2.15
2023-01-17T00:23:33.532Z,2.17
2023-01-17T00:26:04.752Z,1.77
2023-01-17T00:28:33.876Z,2.55
2023-01-17T00:31:01.353Z,2.03
2023-01-17T00:33:28.529Z,1.98
2023-01-17T00:35:57.424Z,2.33
2023-01-17T00:38:27.139Z,2.70
2023-01-17T00:40:54.332Z,2.53
2023-01-17T00:43:41.201Z,2.10
2023-01-17T00:46:27.571Z,2.20
2023-01-17T00:49:13.503Z,2.22
2023-01-17T00:51:59.240Z,2.13
2023-01-17T00:54:46.329Z,1.95
2023-01-17T00:57:31.975Z,2.00
2023-01-17T01:00:17.720Z,2.22
2023-01-17T01:03:03.548Z,2.50
2023-01-17T01:05:49.252Z,2.10
2023-01-17T01:08:37.401Z,2.50
2023-01-17T01:11:26.589Z,2.20
2023-01-17T01:14:12.889Z,2.10
2023-01-17T01:16:58.569Z,2.03
2023-01-17T01:19:44.384Z,1.92
2023-01-17T01:22:30.121Z,2.45
2023-01-17T01:25:15.970Z,1.97
2023-01-17T01:28:03.163Z,2.25
2023-01-17T01:30:48.896Z,2.17
2023-01-17T01:33:18.653Z,2.50
2023-01-17T01:35:49.292Z,2.20
2023-01-17T01:38:17.737Z,1.90
2023-01-17T01:40:47.235Z,2.00
2023-01-17T01:43:18.621Z,2.20
2023-01-17T01:45:50.002Z,2.03
2023-01-17T01:48:34.542Z,2.25
2023-01-17T01:51:04.856Z,2.90
2023-01-17T01:53:34.094Z,2.10
2023-01-17T01:56:02.519Z,2.60
2023-01-17T01:58:33.408Z,1.88
2023-01-17T02:01:01.841Z,2.33
2023-01-17T02:03:32.457Z,2.73
2023-01-17T02:06:03.675Z,2.72
2023-01-17T02:08:32.342Z,4.82
2023-01-17T02:11:00.627Z,4.20
2023-01-17T02:13:29.187Z,3.42
2023-01-17T02:16:04.873Z,2.47
2023-01-17T02:18:42.233Z,2.75
2023-01-17T02:21:18.827Z,2.53
2023-01-17T02:24:01.179Z,2.30
2023-01-17T02:26:46.928Z,2.55
2023-01-17T02:29:36.057Z,2.90
2023-01-17T02:32:09.132Z,2.67
2023-01-17T02:34:42.389Z,2.88
2023-01-17T02:37:15.811Z,3.15
2023-01-17T02:39:49.224Z,2.70
2023-01-17T02:42:19.224Z,3.23
2023-01-17T02:44:47.234Z,3.15
2023-01-17T02:47:25.599Z,2.85
2023-01-17T02:49:56.033Z,3.00
2023-01-17T02:52:38.437Z,2.78
2023-01-17T02:55:15.862Z,2.57
2023-01-17T02:57:56.366Z,2.47
2023-01-17T03:00:28.807Z,3.22
2023-01-17T03:03:03.391Z,3.03
2023-01-17T03:05:36.019Z,3.25
2023-01-17T03:08:05.016Z,2.77
2023-01-17T03:10:33.956Z,2.95
2023-01-17T03:13:02.985Z,2.83
2023-01-17T03:15:31.071Z,3.00
2023-01-17T03:18:03.182Z,3.20
2023-01-17T03:20:31.291Z,3.03
2023-01-17T03:22:59.513Z,2.80
2023-01-17T03:25:27.527Z,3.05
2023-01-17T03:27:56.377Z,3.30
2023-01-17T03:30:24.464Z,2.80
2023-01-17T03:32:52.752Z,2.87
2023-01-17T03:35:22.122Z,2.70
2023-01-17T03:37:50.382Z,3.00
2023-01-17T03:40:18.586Z,2.80
2023-01-17T03:42:46.894Z,2.72
2023-01-17T03:45:15.137Z,2.57
2023-01-17T03:47:43.379Z,2.38
2023-01-17T03:50:13.180Z,2.72
2023-01-17T03:52:42.803Z,2.40
2023-01-17T03:55:11.439Z,2.60
2023-01-17T03:57:39.736Z,2.70
2023-01-17T04:00:09.138Z,2.83
2023-01-17T04:02:37.513Z,2.92
2023-01-17T04:05:06.262Z,2.92
2023-01-17T04:07:34.569Z,2.67
2023-01-17T04:10:04.088Z,2.70
2023-01-17T04:12:32.320Z,2.60
2023-01-17T04:15:00.314Z,2.30
2023-01-17T04:17:28.921Z,2.13
2023-01-17T04:19:56.983Z,2.78
2023-01-17T04:22:25.444Z,2.40
2023-01-17T04:24:53.576Z,2.55
2023-01-17T04:27:23.116Z,2.88
2023-01-17T04:29:51.135Z,3.33
2023-01-17T04:32:19.771Z,4.50
2023-01-17T04:34:47.765Z,4.10
2023-01-17T04:37:15.967Z,3.33
2023-01-17T04:39:43.999Z,3.35
2023-01-17T04:42:12.218Z,2.80
2023-01-17T04:44:41.549Z,3.40
2023-01-17T04:47:09.810Z,3.20
2023-01-17T04:49:37.800Z,2.85
2023-01-17T04:52:06.349Z,3.28
2023-01-17T04:54:34.484Z,3.20
2023-01-17T04:57:02.815Z,3.13
2023-01-17T04:59:30.831Z,2.83
2023-01-17T05:02:00.565Z,3.13
2023-01-17T05:04:28.588Z,2.80
2023-01-17T05:06:56.848Z,3.15
2023-01-17T05:09:24.913Z,2.97
2023-01-17T05:11:53.147Z,3.23
2023-01-17T05:14:21.180Z,3.58
2023-01-17T05:16:49.488Z,3.92
2023-01-17T05:19:20.923Z,3.55
2023-01-17T05:21:49.239Z,3.30
2023-01-17T05:24:17.430Z,3.00
2023-01-17T05:26:45.707Z,3.42
2023-01-17T05:29:13.741Z,3.15
2023-01-17T05:31:41.966Z,3.55
2023-01-17T05:34:09.994Z,3.35
2023-01-17T05:36:39.697Z,3.10
2023-01-17T05:39:07.761Z,3.22
2023-01-17T05:41:35.978Z,3.53
2023-01-17T05:44:04.019Z,3.17
2023-01-17T05:46:32.293Z,3.00
2023-01-17T05:49:00.387Z,3.27
2023-01-17T05:51:29.279Z,3.20
2023-01-17T05:53:58.591Z,3.47
2023-01-17T05:56:26.960Z,3.40
2023-01-17T05:58:55.183Z,3.70
2023-01-17T06:01:23.500Z,3.90
2023-01-17T06:03:51.525Z,3.88
2023-01-17T06:06:19.820Z,3.55
2023-01-17T06:08:47.944Z,3.40
2023-01-17T06:11:18.455Z,3.58
2023-01-17T06:13:46.567Z,4.03
2023-01-17T06:16:16.121Z,4.07
2023-01-17T06:18:44.101Z,3.42
2023-01-17T06:21:12.413Z,3.67
2023-01-17T06:23:40.390Z,3.75
2023-01-17T06:26:09.030Z,3.33
2023-01-17T06:28:38.366Z,3.60
2023-01-17T06:31:08.394Z,3.70
2023-01-17T06:33:36.472Z,3.70
2023-01-17T06:36:05.359Z,3.78
2023-01-17T06:38:33.396Z,4.70
2023-01-17T06:41:04.910Z,5.65
2023-01-17T06:43:34.308Z,4.13
2023-01-17T06:46:03.960Z,5.15
2023-01-17T06:48:31.953Z,5.05
2023-01-17T06:51:00.273Z,4.80
2023-01-17T06:53:28.255Z,5.00
2023-01-17T06:55:57.383Z,5.45
2023-01-17T06:58:25.426Z,5.38
2023-01-17T07:00:53.965Z,5.30
2023-01-17T07:03:27.194Z,4.70
2023-01-17T07:05:55.619Z,8.50
2023-01-17T07:08:23.571Z,6.72
2023-01-17T07:10:51.895Z,6.70
2023-01-17T07:13:20.039Z,5.80
2023-01-17T07:15:48.293Z,4.40
2023-01-17T07:18:20.453Z,3.67
2023-01-17T07:20:50.481Z,4.43
2023-01-17T07:23:19.127Z,3.40
2023-01-17T07:25:52.439Z,4.30
2023-01-17T07:28:20.545Z,4.53
2023-01-17T07:30:49.033Z,4.57
2023-01-17T07:33:17.452Z,4.38
2023-01-17T07:35:46.411Z,4.30
2023-01-17T07:38:17.123Z,3.58
2023-01-17T07:40:45.604Z,3.97
2023-01-17T07:43:14.412Z,3.67
2023-01-17T07:45:43.925Z,3.60
2023-01-17T07:48:12.653Z,3.80
2023-01-17T07:50:40.927Z,4.13
2023-01-17T07:53:09.079Z,3.77
2023-01-17T07:55:38.676Z,3.58
2023-01-17T07:58:06.892Z,3.55
2023-01-17T08:00:35.147Z,3.67
2023-01-17T08:03:03.266Z,3.70
2023-01-17T08:05:31.774Z,3.57
2023-01-17T08:07:59.806Z,4.57
2023-01-17T08:10:28.052Z,4.68
2023-01-17T08:12:57.616Z,5.85
2023-01-17T08:15:26.648Z,5.35
2023-01-17T08:17:54.660Z,4.53
2023-01-17T08:20:23.309Z,3.80
2023-01-17T08:22:53.693Z,3.78
2023-01-17T08:25:22.572Z,3.83
2023-01-17T08:27:50.653Z,3.75
2023-01-17T08:30:20.364Z,4.20
2023-01-17T08:32:48.456Z,3.60
2023-01-17T08:35:16.921Z,3.88
2023-01-17T08:37:44.921Z,3.95
2023-01-17T08:40:18.121Z,4.47
2023-01-17T08:42:46.219Z,3.73
2023-01-17T08:45:14.958Z,4.18
2023-01-17T08:47:44.306Z,3.30
2023-01-17T08:50:12.602Z,3.58
2023-01-17T08:52:40.640Z,3.50
2023-01-17T08:55:11.087Z,3.40
2023-01-17T08:57:39.082Z,3.58
2023-01-17T09:00:08.708Z,3.38
2023-01-17T09:02:36.968Z,3.15
2023-01-17T09:05:07.789Z,2.97
2023-01-17T09:07:35.815Z,2.90
2023-01-17T09:10:04.225Z,3.25
2023-01-17T09:12:33.354Z,3.33
2023-01-17T09:15:02.729Z,2.88
2023-01-17T09:17:31.235Z,3.80
2023-01-17T09:19:59.565Z,4.27
2023-01-17T09:22:28.959Z,3.10
2023-01-17T09:24:57.469Z,2.90
2023-01-17T09:27:25.544Z,3.72
2023-01-17T09:29:53.782Z,3.15
2023-01-17T09:32:21.788Z,3.10
2023-01-17T09:34:50.015Z,3.15
2023-01-17T09:37:18.015Z,2.72
2023-01-17T09:39:47.617Z,3.55
2023-01-17T09:42:21.533Z,4.72
2023-01-17T09:44:51.575Z,3.30
2023-01-17T09:47:29.090Z,4.28
2023-01-17T09:49:58.976Z,4.18
2023-01-17T09:52:29.923Z,3.03
2023-01-17T09:55:00.013Z,3.25
2023-01-17T09:57:39.761Z,2.70
2023-01-17T10:00:16.762Z,2.58
2023-01-17T10:02:57.422Z,3.20
2023-01-17T10:05:43.932Z,3.20
2023-01-17T10:08:20.679Z,3.53
2023-01-17T10:11:01.749Z,3.20
2023-01-17T10:13:35.577Z,3.20
2023-01-17T10:16:14.047Z,3.60
2023-01-17T10:19:07.834Z,3.13
2023-01-17T10:21:49.446Z,3.05
2023-01-17T10:24:39.681Z,3.13
2023-01-17T10:27:17.680Z,3.45
2023-01-17T10:29:47.814Z,3.85
2023-01-17T10:32:16.170Z,3.35
2023-01-17T10:34:46.494Z,3.28
2023-01-17T10:37:19.288Z,3.97
2023-01-17T10:39:50.312Z,4.50
2023-01-17T10:42:23.366Z,4.53
2023-01-17T10:44:55.872Z,3.45
2023-01-17T10:47:25.144Z,3.35
2023-01-17T10:49:54.412Z,3.57
2023-01-17T10:52:32.059Z,3.88
2023-01-17T10:55:10.825Z,4.10
2023-01-17T10:57:42.382Z,3.70
2023-01-17T11:00:34.481Z,2.80
2023-01-17T11:03:03.477Z,3.03
2023-01-17T11:05:33.291Z,2.70
2023-01-17T11:08:02.812Z,2.55
2023-01-17T11:10:40.224Z,2.75
2023-01-17T11:13:22.383Z,2.80
2023-01-17T11:15:52.804Z,2.30
2023-01-17T11:18:21.939Z,2.58
2023-01-17T11:20:50.753Z,2.10
2023-01-17T11:23:21.864Z,2.65
2023-01-17T11:25:51.331Z,2.00
2023-01-17T11:28:25.960Z,2.33
2023-01-17T11:30:55.805Z,2.03
2023-01-17T11:33:44.935Z,2.05
2023-01-17T11:36:19.998Z,1.63
2023-01-17T11:39:03.159Z,1.92
2023-01-17T11:41:34.736Z,1.80
2023-01-17T11:44:07.180Z,2.15
2023-01-17T11:46:35.280Z,2.10
2023-01-17T11:49:03.765Z,2.17
2023-01-17T11:51:33.426Z,1.80
2023-01-17T11:54:13.136Z,1.63
2023-01-17T11:56:44.918Z,1.50
2023-01-17T11:59:28.295Z,1.90
2023-01-17T12:02:35.597Z,2.40
2023-01-17T12:05:15.246Z,2.00
2023-01-17T12:07:47.127Z,1.53
2023-01-17T12:10:19.182Z,1.85
2023-01-17T12:13:11.988Z,1.92
2023-01-17T12:15:53.806Z,1.60
2023-01-17T12:18:33.426Z,1.92
2023-01-17T12:21:16.267Z,1.80
2023-01-17T12:24:00.028Z,1.58
2023-01-17T12:26:36.057Z,1.60
2023-01-17T12:29:28.169Z,1.70
2023-01-17T12:32:12.076Z,1.60
2023-01-17T12:34:45.927Z,1.63
2023-01-17T12:37:20.207Z,1.65
2023-01-17T12:39:54.514Z,2.03
2023-01-17T12:42:25.188Z,1.73
2023-01-17T12:44:57.788Z,1.33
2023-01-17T12:47:27.629Z,1.70
2023-01-17T12:50:01.957Z,1.75
2023-01-17T12:52:39.822Z,1.40
2023-01-17T12:55:12.737Z,1.45
2023-01-17T12:57:45.207Z,1.40
2023-01-17T13:00:19.484Z,1.40
2023-01-17T13:02:52.386Z,1.50
2023-01-17T13:05:24.824Z,1.20
2023-01-17T13:07:57.476Z,1.58
2023-01-17T13:10:31.137Z,1.30
2023-01-17T13:13:04.710Z,1.23
2023-01-17T13:15:38.435Z,1.30
2023-01-17T13:18:13.458Z,1.15
2023-01-17T13:20:57.809Z,1.10
2023-01-17T13:23:30.742Z,1.02
2023-01-17T13:26:00.499Z,1.17
2023-01-17T13:28:39.619Z,0.93
2023-01-17T13:31:24.837Z,1.08
2023-01-17T13:34:08.211Z,1.10
2023-01-17T13:36:46.278Z,1.20
2023-01-17T13:39:40.536Z,0.77
2023-01-17T13:42:13.043Z,1.10
2023-01-17T13:44:41.874Z,1.15
2023-01-17T13:47:38.740Z,1.20
2023-01-17T13:50:48.614Z,1.20
2023-01-17T13:53:57.205Z,1.77
2023-01-17T13:56:43.170Z,1.42
2023-01-17T13:59:30.500Z,1.33
2023-01-17T14:01:58.850Z,1.80
2023-01-17T14:05:00.888Z,1.95
2023-01-17T14:07:32.400Z,2.13
2023-01-17T14:10:00.419Z,2.05
2023-01-17T14:12:32.752Z,1.52
2023-01-17T14:15:05.651Z,1.67
2023-01-17T14:17:52.627Z,2.30
2023-01-17T14:20:51.600Z,1.60
2023-01-17T14:23:48.565Z,1.92
2023-01-17T14:26:36.577Z,1.63
2023-01-17T14:29:42.556Z,1.60
2023-01-17T14:32:12.411Z,1.63
2023-01-17T14:34:41.261Z,1.53
2023-01-17T14:37:17.816Z,2.10
2023-01-17T14:39:48.555Z,1.60
2023-01-17T14:42:18.224Z,1.50
2023-01-17T14:44:48.407Z,1.83
2023-01-17T14:47:17.140Z,3.40
2023-01-17T14:49:45.724Z,2.03
2023-01-17T14:52:17.706Z,2.00
2023-01-17T14:54:52.056Z,1.80
2023-01-17T14:57:29.044Z,1.40
2023-01-17T15:00:14.723Z,1.80
2023-01-17T15:02:44.382Z,1.55
2023-01-17T15:05:15.129Z,2.30
2023-01-17T15:07:44.307Z,1.70
2023-01-17T15:10:16.741Z,2.03
2023-01-17T15:12:47.738Z,2.00
2023-01-17T15:15:41.795Z,1.50
2023-01-17T15:18:18.093Z,2.50
2023-01-17T15:20:51.072Z,1.95
2023-01-17T15:23:20.640Z,1.88
2023-01-17T15:25:51.968Z,1.97
2023-01-17T15:28:20.049Z,1.90
2023-01-17T15:31:06.924Z,2.40
2023-01-17T15:33:36.003Z,2.38
2023-01-17T15:36:06.559Z,1.83
2023-01-17T15:38:39.007Z,1.90
2023-01-17T15:41:14.713Z,2.10
2023-01-17T15:43:44.275Z,1.85
2023-01-17T15:46:23.833Z,2.33
2023-01-17T15:48:52.391Z,2.30
2023-01-17T15:51:34.277Z,1.63
2023-01-17T15:54:25.044Z,1.48
2023-01-17T15:57:07.837Z,2.50
2023-01-17T15:59:43.109Z,2.63
2023-01-17T16:02:34.398Z,2.33
2023-01-17T16:05:05.201Z,1.80
2023-01-17T16:07:34.951Z,1.80
2023-01-17T16:10:07.771Z,2.20
2023-01-17T16:12:37.365Z,2.10
2023-01-17T16:15:12.973Z,1.80
2023-01-17T16:17:43.228Z,1.90
2023-01-17T16:20:16.080Z,1.80
2023-01-17T16:22:44.682Z,1.92
2023-01-17T16:25:14.766Z,1.92
2023-01-17T16:27:44.423Z,3.58
2023-01-17T16:30:15.181Z,2.20
2023-01-17T16:32:43.854Z,2.30
2023-01-17T16:35:18.860Z,2.80
2023-01-17T16:37:50.263Z,2.60
2023-01-17T16:40:18.998Z,1.90
2023-01-17T16:42:48.787Z,2.13
2023-01-17T16:45:17.327Z,1.98
2023-01-17T16:47:48.419Z,1.83
2023-01-17T16:50:18.864Z,2.05
2023-01-17T16:52:47.158Z,2.35
2023-01-17T16:55:16.719Z,2.10
2023-01-17T16:57:45.119Z,1.70
2023-01-17T17:00:15.448Z,1.98
2023-01-17T17:02:43.977Z,2.40
2023-01-17T17:05:12.396Z,2.70
2023-01-17T17:07:42.806Z,2.50
2023-01-17T17:10:11.689Z,2.75
2023-01-17T17:12:40.058Z,2.50
2023-01-17T17:15:09.283Z,2.38
2023-01-17T17:17:40.344Z,2.30
2023-01-17T17:20:10.989Z,2.30
2023-01-17T17:22:39.575Z,2.55
2023-01-17T17:25:08.226Z,2.20
2023-01-17T17:27:36.528Z,1.85
2023-01-17T17:30:05.432Z,2.58
2023-01-17T17:32:33.772Z,2.10
2023-01-17T17:35:03.129Z,2.20
2023-01-17T17:37:31.488Z,2.20
2023-01-17T17:39:59.505Z,2.30
2023-01-17T17:42:27.799Z,2.70
2023-01-17T17:44:55.757Z,2.50
2023-01-17T17:47:24.904Z,2.17
2023-01-17T17:49:52.944Z,2.50
2023-01-17T17:52:22.597Z,2.28
2023-01-17T17:54:50.599Z,2.67
2023-01-17T17:57:18.909Z,3.50
2023-01-17T17:59:46.875Z,3.35
2023-01-17T18:02:15.239Z,3.25
2023-01-17T18:04:43.306Z,3.58
2023-01-17T18:07:11.587Z,3.45
2023-01-17T18:09:41.188Z,2.50
2023-01-17T18:12:09.425Z,2.83
2023-01-17T18:14:37.482Z,4.25
2023-01-17T18:17:05.693Z,4.00
2023-01-17T18:19:33.734Z,5.53
2023-01-17T18:22:03.607Z,5.70
2023-01-17T18:24:31.718Z,4.85
2023-01-17T18:27:01.335Z,5.68
2023-01-17T18:29:29.495Z,4.20
2023-01-17T18:31:58.093Z,4.93
2023-01-17T18:34:29.090Z,4.60
2023-01-17T18:37:00.193Z,3.92
2023-01-17T18:39:29.342Z,4.22
2023-01-17T18:41:57.920Z,3.83
2023-01-17T18:44:27.677Z,4.38
2023-01-17T18:46:58.118Z,3.43
2023-01-17T18:49:26.208Z,3.88
2023-01-17T18:51:54.442Z,5.57
2023-01-17T18:54:22.456Z,4.72
2023-01-17T18:56:51.006Z,4.13
2023-01-17T18:59:19.605Z,3.83
2023-01-17T19:01:49.351Z,5.13
2023-01-17T19:04:18.092Z,4.70
2023-01-17T19:06:48.941Z,4.30
2023-01-17T19:09:17.991Z,2.70
2023-01-17T19:11:47.281Z,2.37
2023-01-17T19:14:15.720Z,2.40
2023-01-17T19:16:44.431Z,2.33
2023-01-17T19:19:15.374Z,2.13
2023-01-17T19:21:44.157Z,1.83
2023-01-17T19:24:14.219Z,2.10
2023-01-17T19:26:42.883Z,2.15
2023-01-17T19:29:11.092Z,2.47
2023-01-17T19:31:42.393Z,2.50
2023-01-17T19:34:11.006Z,2.40
2023-01-17T19:36:40.589Z,2.30
2023-01-17T19:39:10.286Z,2.30
2023-01-17T19:41:41.892Z,1.95
2023-01-17T19:44:11.989Z,2.17
2023-01-17T19:46:40.355Z,2.28
2023-01-17T19:49:09.269Z,2.57
2023-01-17T19:51:39.327Z,2.25
2023-01-17T19:54:08.965Z,2.15
2023-01-17T19:56:37.500Z,2.80
2023-01-17T19:59:05.903Z,2.47
2023-01-17T20:01:35.282Z,2.60
2023-01-17T20:04:04.330Z,2.33
2023-01-17T20:06:34.650Z,2.50
2023-01-17T20:09:03.251Z,2.50
2023-01-17T20:11:33.370Z,2.30
2023-01-17T20:14:01.372Z,2.00
2023-01-17T20:16:31.490Z,2.42
2023-01-17T20:19:00.187Z,2.65
2023-01-17T20:21:29.462Z,2.45
2023-01-17T20:23:58.722Z,3.38
2023-01-17T20:26:34.300Z,4.53
2023-01-17T20:29:06.770Z,3.15
2023-01-17T20:31:37.996Z,2.40
2023-01-17T20:34:07.027Z,2.17
2023-01-17T20:36:36.851Z,2.60
2023-01-17T20:39:05.726Z,4.87
2023-01-17T20:41:35.956Z,5.60
2023-01-17T20:44:07.258Z,5.07
2023-01-17T20:46:40.413Z,6.00
2023-01-17T20:49:12.938Z,5.53
2023-01-17T20:51:41.850Z,5.20
2023-01-17T20:54:12.928Z,3.50
2023-01-17T20:56:41.475Z,3.03
2023-01-17T20:59:14.321Z,4.32
2023-01-17T21:01:44.541Z,2.72
2023-01-17T21:04:13.027Z,2.93
2023-01-17T21:06:42.453Z,2.38
2023-01-17T21:09:13.046Z,2.50
2023-01-17T21:11:41.551Z,2.90
2023-01-17T21:14:10.988Z,2.70
2023-01-17T21:16:39.289Z,2.47
2023-01-17T21:19:11.732Z,2.83
2023-01-17T21:21:40.452Z,3.05
2023-01-17T21:24:08.830Z,3.05
2023-01-17T21:26:38.839Z,2.42
2023-01-17T21:29:07.179Z,2.50
2023-01-17T21:31:38.509Z,2.75
2023-01-17T21:34:08.447Z,2.60
2023-01-17T21:36:38.972Z,2.60
2023-01-17T21:39:08.494Z,2.60
2023-01-17T21:41:38.119Z,2.40
2023-01-17T21:44:08.575Z,2.08
2023-01-17T21:46:39.296Z,1.92
2023-01-17T21:49:10.414Z,2.60
2023-01-17T21:52:02.100Z,2.50
2023-01-17T21:54:48.388Z,2.60
2023-01-17T21:57:36.579Z,2.15
2023-01-17T22:00:06.368Z,2.65
2023-01-17T22:02:41.287Z,2.35
2023-01-17T22:05:10.653Z,2.40
2023-01-17T22:07:39.882Z,2.03
2023-01-17T22:10:08.432Z,2.50
2023-01-17T22:12:36.861Z,2.80
2023-01-17T22:15:05.664Z,2.83
2023-01-17T22:17:33.977Z,3.22
2023-01-17T22:20:03.498Z,2.90
2023-01-17T22:22:32.909Z,2.70
2023-01-17T22:25:00.910Z,2.72
2023-01-17T22:27:29.582Z,2.63
2023-01-17T22:29:57.654Z,2.60
2023-01-17T22:32:25.925Z,2.63
2023-01-17T22:34:53.987Z,2.75
2023-01-17T22:37:23.594Z,3.17
2023-01-17T22:39:51.586Z,2.90
2023-01-17T22:42:20.011Z,2.85
2023-01-17T22:44:48.215Z,2.23
2023-01-17T22:47:16.532Z,2.85
2023-01-17T22:49:44.568Z,2.75
2023-01-17T22:52:12.819Z,3.22
2023-01-17T22:54:42.170Z,3.40
2023-01-17T22:57:10.522Z,2.37
2023-01-17T22:59:38.479Z,2.88
2023-01-17T23:02:06.703Z,2.53
2023-01-17T23:04:34.747Z,2.88
2023-01-17T23:07:02.942Z,2.60
2023-01-17T23:09:30.975Z,2.63
2023-01-17T23:12:00.586Z,3.03
2023-01-17T23:14:30.897Z,2.70
2023-01-17T23:17:18.508Z,2.60
2023-01-17T23:19:48.196Z,3.10
2023-01-17T23:22:18.994Z,2.90
2023-01-17T23:24:50.308Z,2.63
2023-01-17T23:27:39.737Z,2.78
2023-01-17T23:30:10.661Z,2.70
2023-01-17T23:32:39.111Z,3.35
2023-01-17T23:35:07.728Z,3.03
2023-01-17T23:37:53.557Z,3.15
2023-01-17T23:40:21.520Z,3.10
2023-01-17T23:43:08.733Z,3.42
2023-01-17T23:45:37.323Z,3.13
2023-01-17T23:48:09.494Z,3.00
2023-01-17T23:50:38.218Z,3.00
2023-01-17T23:53:07.825Z,2.60
2023-01-17T23:55:37.115Z,2.90
2023-01-17T23:58:08.009Z,3.08
